createdAt,value
2023-03-13T00:03:32.859Z,491.00
2023-03-13T00:07:32.925Z,494.00
2023-03-13T00:11:33.020Z,494.00
2023-03-13T00:15:33.081Z,503.00
2023-03-13T00:19:33.178Z,497.00
2023-03-13T00:23:33.259Z,499.00
2023-03-13T00:27:33.336Z,499.00
2023-03-13T00:31:33.449Z,499.00
2023-03-13T00:35:33.511Z,497.00
2023-03-13T00:39:33.562Z,495.00
2023-03-13T00:43:33.668Z,490.00
2023-03-13T00:47:33.765Z,493.00
2023-03-13T00:51:33.848Z,500.00
2023-03-13T00:55:33.912Z,497.00
2023-03-13T00:59:34.039Z,496.00
2023-03-13T01:03:34.181Z,492.00
2023-03-13T01:07:34.227Z,490.00
2023-03-13T01:11:34.334Z,490.00
2023-03-13T01:15:34.443Z,490.00
2023-03-13T01:19:34.527Z,494.00
2023-03-13T01:23:34.584Z,496.00
2023-03-13T01:27:34.735Z,496.00
2023-03-13T01:31:34.938Z,497.00
2023-03-13T01:35:34.967Z,501.00
2023-03-13T01:39:34.977Z,497.00
2023-03-13T01:43:35.121Z,497.00
2023-03-13T01:47:35.210Z,503.00
2023-03-13T01:51:35.295Z,507.00
2023-03-13T01:55:35.396Z,506.00
2023-03-13T01:59:35.475Z,501.00
2023-03-13T02:03:35.606Z,502.00
2023-03-13T02:07:35.707Z,500.00
2023-03-13T02:11:35.800Z,502.00
2023-03-13T02:15:35.909Z,499.00
2023-03-13T02:19:36.020Z,497.00
2023-03-13T02:23:36.111Z,492.00
2023-03-13T02:27:36.270Z,496.00
2023-03-13T02:31:36.472Z,491.00
2023-03-13T02:35:36.539Z,495.00
2023-03-13T02:39:36.558Z,492.00
2023-03-13T02:43:36.646Z,494.00
2023-03-13T02:47:36.765Z,494.00
2023-03-13T02:51:36.896Z,491.00
2023-03-13T02:55:37.021Z,490.00
2023-03-13T02:59:37.154Z,492.00
2023-03-13T03:03:37.279Z,489.00
2023-03-13T03:07:37.342Z,492.00
2023-03-13T03:11:37.486Z,492.00
2023-03-13T03:15:37.576Z,486.00
2023-03-13T03:19:37.740Z,484.00
2023-03-13T03:23:37.843Z,482.00
2023-03-13T03:27:37.962Z,485.00
2023-03-13T03:31:38.145Z,490.00
2023-03-13T03:35:38.247Z,492.00
2023-03-13T03:39:38.252Z,491.00
2023-03-13T03:43:38.388Z,491.00
2023-03-13T03:47:38.470Z,492.00
2023-03-13T03:51:38.606Z,490.00
2023-03-13T03:55:38.726Z,493.00
2023-03-13T03:59:38.813Z,489.00
2023-03-13T04:03:38.943Z,489.00
2023-03-13T04:07:39.065Z,485.00
2023-03-13T04:11:39.186Z,484.00
2023-03-13T04:15:39.304Z,484.00
2023-03-13T04:19:39.403Z,487.00
2023-03-13T04:23:39.515Z,489.00
2023-03-13T04:27:39.643Z,488.00
2023-03-13T04:31:39.756Z,486.00
2023-03-13T04:35:40.007Z,490.00
2023-03-13T04:39:39.948Z,487.00
2023-03-13T04:43:40.131Z,484.00
2023-03-13T04:47:40.171Z,485.00
2023-03-13T04:51:40.302Z,485.00
2023-03-13T04:55:40.373Z,490.00
2023-03-13T04:59:40.532Z,487.00
2023-03-13T05:03:40.624Z,488.00
2023-03-13T05:07:40.723Z,484.00
2023-03-13T05:11:40.851Z,485.00
2023-03-13T05:15:41.056Z,485.00
2023-03-13T05:19:41.108Z,488.00
2023-03-13T05:23:41.198Z,487.00
2023-03-13T05:27:41.304Z,485.00
2023-03-13T05:31:41.401Z,486.00
2023-03-13T05:35:41.560Z,483.00
2023-03-13T05:39:41.635Z,484.00
2023-03-13T05:43:41.802Z,483.00
2023-03-13T05:47:41.893Z,484.00
2023-03-13T05:51:42.000Z,482.00
2023-03-13T05:55:42.091Z,480.00
2023-03-13T05:59:42.173Z,481.00
2023-03-13T06:03:42.366Z,479.00
2023-03-13T06:07:42.354Z,488.00
2023-03-13T06:11:42.445Z,490.00
2023-03-13T06:15:42.529Z,487.00
2023-03-13T06:19:42.563Z,484.00
2023-03-13T06:23:42.588Z,481.00
2023-03-13T06:27:42.644Z,484.00
2023-03-13T06:31:42.820Z,488.00
2023-03-13T06:35:55.209Z,489.00
2023-03-13T06:39:43.749Z,491.00
2023-03-13T06:43:42.648Z,491.00
2023-03-13T06:47:42.813Z,495.00
2023-03-13T06:51:42.755Z,492.00
2023-03-13T06:55:42.785Z,491.00
2023-03-13T06:59:42.522Z,494.00
2023-03-13T07:03:42.512Z,501.00
2023-03-13T07:07:42.796Z,506.00
2023-03-13T07:11:42.410Z,512.00
2023-03-13T07:15:42.375Z,518.00
2023-03-13T07:19:42.350Z,517.00
2023-03-13T07:23:42.387Z,518.00
2023-03-13T07:27:42.349Z,524.00
2023-03-13T07:31:42.777Z,534.00
2023-03-13T07:35:42.351Z,534.00
2023-03-13T07:39:42.376Z,543.00
2023-03-13T07:43:42.371Z,542.00
2023-03-13T07:47:42.792Z,546.00
2023-03-13T07:51:43.964Z,551.00
2023-03-13T07:55:43.280Z,555.00
2023-03-13T07:59:42.931Z,551.00
2023-03-13T08:03:42.866Z,550.00
2023-03-13T08:07:42.440Z,551.00
2023-03-13T08:11:42.565Z,554.00
2023-03-13T08:15:42.426Z,561.00
2023-03-13T08:19:42.820Z,574.00
2023-03-13T08:23:42.407Z,569.00
2023-03-13T08:27:42.387Z,572.00
2023-03-13T08:31:42.820Z,574.00
2023-03-13T08:35:42.380Z,576.00
2023-03-13T08:39:42.804Z,566.00
2023-03-13T08:43:42.345Z,571.00
2023-03-13T08:47:42.825Z,570.00
2023-03-13T08:51:42.828Z,575.00
2023-03-13T08:55:42.394Z,590.00
2023-03-13T08:59:42.811Z,594.00
2023-03-13T09:03:42.690Z,597.00
2023-03-13T09:07:44.329Z,605.00
2023-03-13T09:11:42.961Z,605.00
2023-03-13T09:15:42.919Z,606.00
2023-03-13T09:19:57.686Z,614.00
2023-03-13T09:23:43.856Z,621.00
2023-03-13T09:27:42.836Z,624.00
2023-03-13T09:31:43.018Z,626.00
2023-03-13T09:35:43.129Z,636.00
2023-03-13T09:39:43.329Z,643.00
2023-03-13T09:43:43.345Z,634.00
2023-03-13T09:47:43.404Z,624.00
2023-03-13T09:51:43.199Z,623.00
2023-03-13T09:55:43.361Z,627.00
2023-03-13T09:59:43.304Z,622.00
2023-03-13T10:03:43.056Z,622.00
2023-03-13T10:07:43.330Z,620.00
2023-03-13T10:11:43.001Z,617.00
2023-03-13T10:15:42.997Z,608.00
2023-03-13T10:19:43.373Z,606.00
2023-03-13T10:23:43.347Z,599.00
2023-03-13T10:27:42.907Z,598.00
2023-03-13T10:31:43.377Z,597.00
2023-03-13T10:35:42.912Z,592.00
2023-03-13T10:39:42.856Z,586.00
2023-03-13T10:43:42.851Z,587.00
2023-03-13T10:47:42.747Z,579.00
2023-03-13T10:51:42.873Z,580.00
2023-03-13T10:55:42.681Z,593.00
2023-03-13T10:59:42.844Z,596.00
2023-03-13T11:03:42.693Z,596.00
2023-03-13T11:07:42.581Z,594.00
2023-03-13T11:11:42.587Z,599.00
2023-03-13T11:15:42.833Z,600.00
2023-03-13T11:19:42.521Z,601.00
2023-03-13T11:23:42.453Z,604.00
2023-03-13T11:27:42.920Z,608.00
2023-03-13T11:31:42.951Z,608.00
2023-03-13T11:35:42.395Z,614.00
2023-03-13T11:39:42.324Z,614.00
2023-03-13T11:43:42.874Z,619.00
2023-03-13T11:47:42.673Z,622.00
2023-03-13T11:51:43.421Z,614.00
2023-03-13T11:55:43.104Z,611.00
2023-03-13T11:59:43.297Z,610.00
2023-03-13T12:03:43.570Z,620.00
2023-03-13T12:07:43.739Z,627.00
2023-03-13T12:11:44.367Z,616.00
2023-03-13T12:15:44.870Z,615.00
2023-03-13T12:19:44.340Z,620.00
2023-03-13T12:23:44.660Z,619.00
2023-03-13T12:27:44.892Z,619.00
2023-03-13T12:31:45.391Z,612.00
2023-03-13T12:35:45.144Z,611.00
2023-03-13T12:39:45.460Z,609.00
2023-03-13T12:43:57.204Z,594.00
2023-03-13T12:47:46.529Z,590.00
2023-03-13T12:51:45.446Z,581.00
2023-03-13T12:55:45.674Z,574.00
2023-03-13T12:59:45.869Z,562.00
2023-03-13T13:03:45.838Z,581.00
2023-03-13T13:07:45.943Z,553.00
2023-03-13T13:11:45.747Z,549.00
2023-03-13T13:15:45.762Z,550.00
2023-03-13T13:19:45.889Z,545.00
2023-03-13T13:23:45.914Z,540.00
2023-03-13T13:27:45.898Z,536.00
2023-03-13T13:31:45.826Z,530.00
2023-03-13T13:35:45.567Z,527.00
2023-03-13T13:39:45.938Z,515.00
2023-03-13T13:43:45.644Z,516.00
2023-03-13T13:47:45.852Z,515.00
2023-03-13T13:51:46.029Z,510.00
2023-03-13T13:55:46.256Z,512.00
2023-03-13T13:59:46.443Z,508.00
2023-03-13T14:03:46.630Z,507.00
2023-03-13T14:07:46.827Z,500.00
2023-03-13T14:11:47.046Z,500.00
2023-03-13T14:15:47.068Z,498.00
2023-03-13T14:19:46.992Z,495.00
2023-03-13T14:23:46.976Z,491.00
2023-03-13T14:27:46.898Z,488.00
2023-03-13T14:31:46.956Z,482.00
2023-03-13T14:35:46.859Z,480.00
2023-03-13T14:39:46.821Z,478.00
2023-03-13T14:43:46.754Z,475.00
2023-03-13T14:47:46.712Z,474.00
2023-03-13T14:51:46.912Z,476.00
2023-03-13T14:55:46.780Z,480.00
2023-03-13T14:59:46.720Z,480.00
2023-03-13T15:03:46.728Z,481.00
2023-03-13T15:07:46.716Z,478.00
2023-03-13T15:11:46.924Z,473.00
2023-03-13T15:15:46.589Z,473.00
2023-03-13T15:19:46.531Z,472.00
2023-03-13T15:23:46.548Z,473.00
2023-03-13T15:27:46.502Z,474.00
2023-03-13T15:31:46.666Z,477.00
2023-03-13T15:35:46.578Z,478.00
2023-03-13T15:39:46.606Z,479.00
2023-03-13T15:43:46.447Z,469.00
2023-03-13T15:47:46.443Z,470.00
2023-03-13T15:51:46.388Z,468.00
2023-03-13T15:55:46.329Z,470.00
2023-03-13T15:59:46.281Z,473.00
2023-03-13T16:03:46.276Z,470.00
2023-03-13T16:07:46.217Z,472.00
2023-03-13T16:11:46.399Z,469.00
2023-03-13T16:15:46.324Z,469.00
2023-03-13T16:19:46.316Z,466.00
2023-03-13T16:23:46.234Z,468.00
2023-03-13T16:27:46.291Z,466.00
2023-03-13T16:31:46.182Z,469.00
2023-03-13T16:35:46.186Z,468.00
2023-03-13T16:39:46.111Z,472.00
2023-03-13T16:43:46.094Z,469.00
2023-03-13T16:47:46.025Z,469.00
2023-03-13T16:51:46.229Z,466.00
2023-03-13T16:55:46.161Z,468.00
2023-03-13T16:59:46.138Z,469.00
2023-03-13T17:03:46.615Z,465.00
2023-03-13T17:07:46.031Z,466.00
2023-03-13T17:11:46.034Z,468.00
2023-03-13T17:15:46.084Z,469.00
2023-03-13T17:19:45.911Z,467.00
2023-03-13T17:23:45.891Z,469.00
2023-03-13T17:27:45.844Z,463.00
2023-03-13T17:31:45.965Z,466.00
2023-03-13T17:35:45.945Z,466.00
2023-03-13T17:39:45.890Z,464.00
2023-03-13T17:43:45.876Z,463.00
2023-03-13T17:47:45.799Z,466.00
2023-03-13T17:51:45.800Z,461.00
2023-03-13T17:55:45.761Z,457.00
2023-03-13T17:59:47.599Z,456.00
2023-03-13T18:03:45.662Z,461.00
2023-03-13T18:07:45.653Z,462.00
2023-03-13T18:11:45.813Z,465.00
2023-03-13T18:15:46.109Z,459.00
2023-03-13T18:19:46.035Z,459.00
2023-03-13T18:23:46.006Z,461.00
2023-03-13T18:27:45.965Z,461.00
2023-03-13T18:31:45.969Z,466.00
2023-03-13T18:35:45.857Z,465.00
2023-03-13T18:39:45.839Z,468.00
2023-03-13T18:43:45.812Z,464.00
2023-03-13T18:47:45.795Z,467.00
2023-03-13T18:51:45.798Z,469.00
2023-03-13T18:55:45.680Z,476.00
2023-03-13T18:59:45.671Z,471.00
2023-03-13T19:03:45.619Z,472.00
2023-03-13T19:07:45.588Z,471.00
2023-03-13T19:11:45.560Z,471.00
2023-03-13T19:15:45.512Z,475.00
2023-03-13T19:19:45.468Z,471.00
2023-03-13T19:23:45.429Z,468.00
2023-03-13T19:27:45.427Z,476.00
2023-03-13T19:31:45.439Z,472.00
2023-03-13T19:35:45.618Z,475.00
2023-03-13T19:39:45.538Z,470.00
2023-03-13T19:43:45.524Z,471.00
2023-03-13T19:47:45.469Z,473.00
2023-03-13T19:51:45.433Z,470.00
2023-03-13T19:55:45.439Z,471.00
2023-03-13T19:59:45.332Z,478.00
2023-03-13T20:03:45.301Z,479.00
2023-03-13T20:07:45.288Z,480.00
2023-03-13T20:11:45.261Z,480.00
2023-03-13T20:15:45.385Z,481.00
2023-03-13T20:19:45.320Z,478.00
2023-03-13T20:23:45.292Z,476.00
2023-03-13T20:27:45.277Z,480.00
2023-03-13T20:31:45.205Z,483.00
2023-03-13T20:35:45.189Z,477.00
2023-03-13T20:39:45.106Z,479.00
2023-03-13T20:43:45.130Z,474.00
2023-03-13T20:47:45.033Z,478.00
2023-03-13T20:51:45.007Z,483.00
2023-03-13T20:55:45.135Z,483.00
2023-03-13T20:59:45.065Z,481.00
2023-03-13T21:03:45.059Z,477.00
2023-03-13T21:07:45.006Z,481.00
2023-03-13T21:11:44.961Z,478.00
2023-03-13T21:15:44.976Z,480.00
2023-03-13T21:19:44.901Z,476.00
2023-03-13T21:23:44.864Z,478.00
2023-03-13T21:27:44.812Z,480.00
2023-03-13T21:31:44.831Z,481.00
2023-03-13T21:35:44.802Z,477.00
2023-03-13T21:39:44.863Z,476.00
2023-03-13T21:43:44.834Z,477.00
2023-03-13T21:47:44.792Z,475.00
2023-03-13T21:51:44.734Z,480.00
2023-03-13T21:55:44.686Z,477.00
2023-03-13T21:59:44.691Z,481.00
2023-03-13T22:03:44.776Z,481.00
2023-03-13T22:07:44.566Z,480.00
2023-03-13T22:11:44.521Z,483.00
2023-03-13T22:15:44.505Z,477.00
2023-03-13T22:19:44.479Z,477.00
2023-03-13T22:23:44.434Z,479.00
2023-03-13T22:27:44.420Z,477.00
2023-03-13T22:31:44.597Z,480.00
2023-03-13T22:35:44.772Z,476.00
2023-03-13T22:39:44.919Z,476.00
2023-03-13T22:43:45.045Z,480.00
2023-03-13T22:47:45.247Z,481.00
2023-03-13T22:51:45.372Z,486.00
2023-03-13T22:55:45.507Z,483.00
2023-03-13T22:59:45.646Z,480.00
2023-03-13T23:03:45.829Z,482.00
2023-03-13T23:07:46.010Z,484.00
2023-03-13T23:11:46.175Z,486.00
2023-03-13T23:15:58.674Z,480.00
2023-03-13T23:19:47.127Z,480.00
2023-03-13T23:23:46.061Z,480.00
2023-03-13T23:27:46.207Z,479.00
2023-03-13T23:31:46.439Z,485.00
2023-03-13T23:35:46.666Z,486.00
2023-03-13T23:39:46.809Z,483.00
2023-03-13T23:43:46.995Z,484.00
2023-03-13T23:47:47.192Z,487.00
2023-03-13T23:51:47.411Z,487.00
2023-03-13T23:55:47.557Z,485.00
2023-03-13T23:59:47.736Z,482.00
